sensor_id;sensor_type;location;lat;lon;timestamp;P1;durP1;ratioP1;P2;durP2;ratioP2
35644;SDS011;21764;52.042;6.830;2024-01-07T00:00:11;59.38;;;27.13;;
35644;SDS011;21764;52.042;6.830;2024-01-07T00:05:12;54.05;;;28.30;;
35644;SDS011;21764;52.042;6.830;2024-01-07T00:10:13;54.05;;;28.10;;
35644;SDS011;21764;52.042;6.830;2024-01-07T00:15:14;52.17;;;27.38;;
35644;SDS011;21764;52.042;6.830;2024-01-07T00:20:15;55.35;;;28.90;;
35644;SDS011;21764;52.042;6.830;2024-01-07T00:25:16;50.70;;;27.45;;
35644;SDS011;21764;52.042;6.830;2024-01-07T00:30:18;44.13;;;23.38;;
35644;SDS011;21764;52.042;6.830;2024-01-07T00:35:19;48.20;;;26.45;;
35644;SDS011;21764;52.042;6.830;2024-01-07T00:40:20;42.00;;;22.67;;
35644;SDS011;21764;52.042;6.830;2024-01-07T00:45:21;42.60;;;22.13;;
35644;SDS011;21764;52.042;6.830;2024-01-07T00:50:22;44.72;;;23.25;;
35644;SDS011;21764;52.042;6.830;2024-01-07T00:55:23;46.83;;;23.63;;
35644;SDS011;21764;52.042;6.830;2024-01-07T01:00:25;46.50;;;25.10;;
35644;SDS011;21764;52.042;6.830;2024-01-07T01:05:26;44.05;;;22.58;;
35644;SDS011;21764;52.042;6.830;2024-01-07T01:10:27;43.20;;;23.92;;
35644;SDS011;21764;52.042;6.830;2024-01-07T01:15:28;45.70;;;25.52;;
35644;SDS011;21764;52.042;6.830;2024-01-07T01:20:29;45.22;;;22.50;;
35644;SDS011;21764;52.042;6.830;2024-01-07T01:25:30;42.00;;;23.35;;
35644;SDS011;21764;52.042;6.830;2024-01-07T01:30:31;48.38;;;25.25;;
35644;SDS011;21764;52.042;6.830;2024-01-07T01:35:32;40.97;;;21.27;;
35644;SDS011;21764;52.042;6.830;2024-01-07T01:40:34;39.85;;;22.92;;
35644;SDS011;21764;52.042;6.830;2024-01-07T01:45:35;42.47;;;24.27;;
35644;SDS011;21764;52.042;6.830;2024-01-07T01:50:36;48.08;;;24.13;;
35644;SDS011;21764;52.042;6.830;2024-01-07T01:55:37;44.97;;;23.80;;
35644;SDS011;21764;52.042;6.830;2024-01-07T02:00:38;48.67;;;25.17;;
35644;SDS011;21764;52.042;6.830;2024-01-07T02:05:39;39.35;;;21.70;;
35644;SDS011;21764;52.042;6.830;2024-01-07T02:10:40;34.08;;;17.23;;
35644;SDS011;21764;52.042;6.830;2024-01-07T02:15:42;39.35;;;21.27;;
35644;SDS011;21764;52.042;6.830;2024-01-07T02:20:43;35.65;;;19.77;;
35644;SDS011;21764;52.042;6.830;2024-01-07T02:25:44;37.17;;;20.13;;
35644;SDS011;21764;52.042;6.830;2024-01-07T02:30:45;32.45;;;18.08;;
35644;SDS011;21764;52.042;6.830;2024-01-07T02:35:46;31.67;;;19.55;;
35644;SDS011;21764;52.042;6.830;2024-01-07T02:40:47;24.20;;;14.27;;
35644;SDS011;21764;52.042;6.830;2024-01-07T02:45:48;31.50;;;20.98;;
35644;SDS011;21764;52.042;6.830;2024-01-07T02:50:49;35.42;;;18.45;;
35644;SDS011;21764;52.042;6.830;2024-01-07T02:55:50;31.30;;;18.77;;
35644;SDS011;21764;52.042;6.830;2024-01-07T03:00:51;31.40;;;18.75;;
35644;SDS011;21764;52.042;6.830;2024-01-07T03:05:52;31.45;;;19.48;;
35644;SDS011;21764;52.042;6.830;2024-01-07T03:10:53;35.10;;;19.20;;
35644;SDS011;21764;52.042;6.830;2024-01-07T03:15:55;36.28;;;21.63;;
35644;SDS011;21764;52.042;6.830;2024-01-07T03:20:56;31.10;;;19.20;;
35644;SDS011;21764;52.042;6.830;2024-01-07T03:25:57;35.22;;;21.23;;
35644;SDS011;21764;52.042;6.830;2024-01-07T03:30:59;28.92;;;17.95;;
35644;SDS011;21764;52.042;6.830;2024-01-07T03:36:13;30.13;;;19.02;;
35644;SDS011;21764;52.042;6.830;2024-01-07T03:41:18;34.03;;;20.50;;
35644;SDS011;21764;52.042;6.830;2024-01-07T03:46:19;32.35;;;18.40;;
35644;SDS011;21764;52.042;6.830;2024-01-07T03:51:20;30.58;;;15.48;;
35644;SDS011;21764;52.042;6.830;2024-01-07T03:56:22;33.78;;;20.13;;
35644;SDS011;21764;52.042;6.830;2024-01-07T04:01:23;32.95;;;19.75;;
35644;SDS011;21764;52.042;6.830;2024-01-07T04:06:24;32.88;;;19.60;;
35644;SDS011;21764;52.042;6.830;2024-01-07T04:11:25;34.60;;;20.13;;
35644;SDS011;21764;52.042;6.830;2024-01-07T04:16:26;29.45;;;15.05;;
35644;SDS011;21764;52.042;6.830;2024-01-07T04:21:27;36.20;;;19.80;;
35644;SDS011;21764;52.042;6.830;2024-01-07T04:26:28;30.25;;;16.00;;
35644;SDS011;21764;52.042;6.830;2024-01-07T04:31:29;38.30;;;22.20;;
35644;SDS011;21764;52.042;6.830;2024-01-07T04:36:30;42.17;;;22.75;;
35644;SDS011;21764;52.042;6.830;2024-01-07T04:41:31;36.85;;;22.35;;
35644;SDS011;21764;52.042;6.830;2024-01-07T04:46:37;41.38;;;20.40;;
35644;SDS011;21764;52.042;6.830;2024-01-07T04:51:38;33.75;;;21.45;;
35644;SDS011;21764;52.042;6.830;2024-01-07T04:56:39;35.00;;;21.63;;
35644;SDS011;21764;52.042;6.830;2024-01-07T05:01:41;39.22;;;20.02;;
35644;SDS011;21764;52.042;6.830;2024-01-07T05:06:43;35.95;;;21.55;;
35644;SDS011;21764;52.042;6.830;2024-01-07T05:11:45;30.70;;;18.40;;
35644;SDS011;21764;52.042;6.830;2024-01-07T05:16:46;31.90;;;18.10;;
35644;SDS011;21764;52.042;6.830;2024-01-07T05:21:47;37.83;;;20.80;;
35644;SDS011;21764;52.042;6.830;2024-01-07T05:26:48;33.65;;;18.83;;
35644;SDS011;21764;52.042;6.830;2024-01-07T05:31:49;34.95;;;20.42;;
35644;SDS011;21764;52.042;6.830;2024-01-07T05:36:50;32.78;;;16.52;;
35644;SDS011;21764;52.042;6.830;2024-01-07T05:41:51;35.13;;;20.63;;
35644;SDS011;21764;52.042;6.830;2024-01-07T05:46:52;37.08;;;21.15;;
35644;SDS011;21764;52.042;6.830;2024-01-07T05:51:53;37.47;;;19.77;;
35644;SDS011;21764;52.042;6.830;2024-01-07T05:56:54;34.95;;;20.23;;
35644;SDS011;21764;52.042;6.830;2024-01-07T06:01:59;27.48;;;15.35;;
35644;SDS011;21764;52.042;6.830;2024-01-07T06:07:00;36.17;;;18.63;;
35644;SDS011;21764;52.042;6.830;2024-01-07T06:12:01;31.98;;;17.83;;
35644;SDS011;21764;52.042;6.830;2024-01-07T06:17:02;31.15;;;18.38;;
35644;SDS011;21764;52.042;6.830;2024-01-07T06:22:03;29.90;;;17.75;;
35644;SDS011;21764;52.042;6.830;2024-01-07T06:27:04;33.08;;;17.95;;
35644;SDS011;21764;52.042;6.830;2024-01-07T06:32:06;27.77;;;17.63;;
35644;SDS011;21764;52.042;6.830;2024-01-07T06:37:07;27.20;;;16.85;;
35644;SDS011;21764;52.042;6.830;2024-01-07T06:42:10;26.67;;;17.55;;
35644;SDS011;21764;52.042;6.830;2024-01-07T06:47:11;24.50;;;14.05;;
35644;SDS011;21764;52.042;6.830;2024-01-07T06:52:12;24.92;;;14.68;;
35644;SDS011;21764;52.042;6.830;2024-01-07T06:57:13;21.17;;;12.30;;
35644;SDS011;21764;52.042;6.830;2024-01-07T07:02:14;23.50;;;16.00;;
35644;SDS011;21764;52.042;6.830;2024-01-07T07:07:15;19.42;;;12.68;;
35644;SDS011;21764;52.042;6.830;2024-01-07T07:12:16;28.83;;;17.92;;
35644;SDS011;21764;52.042;6.830;2024-01-07T07:17:18;25.13;;;15.30;;
35644;SDS011;21764;52.042;6.830;2024-01-07T07:22:19;24.92;;;15.95;;
35644;SDS011;21764;52.042;6.830;2024-01-07T07:27:20;21.10;;;16.25;;
35644;SDS011;21764;52.042;6.830;2024-01-07T07:32:21;21.75;;;14.98;;
35644;SDS011;21764;52.042;6.830;2024-01-07T07:37:22;20.80;;;11.35;;
35644;SDS011;21764;52.042;6.830;2024-01-07T07:42:23;27.70;;;13.48;;
35644;SDS011;21764;52.042;6.830;2024-01-07T07:47:24;22.80;;;15.00;;
35644;SDS011;21764;52.042;6.830;2024-01-07T07:52:25;22.80;;;14.82;;
35644;SDS011;21764;52.042;6.830;2024-01-07T07:57:26;23.90;;;16.63;;
35644;SDS011;21764;52.042;6.830;2024-01-07T08:02:28;27.90;;;13.32;;
35644;SDS011;21764;52.042;6.830;2024-01-07T08:07:29;28.52;;;16.85;;
35644;SDS011;21764;52.042;6.830;2024-01-07T08:12:30;19.75;;;13.43;;
35644;SDS011;21764;52.042;6.830;2024-01-07T08:17:31;22.50;;;12.95;;
35644;SDS011;21764;52.042;6.830;2024-01-07T08:22:32;20.58;;;11.75;;
35644;SDS011;21764;52.042;6.830;2024-01-07T08:27:34;21.30;;;13.35;;
35644;SDS011;21764;52.042;6.830;2024-01-07T08:32:36;24.98;;;14.27;;
35644;SDS011;21764;52.042;6.830;2024-01-07T08:37:37;21.92;;;12.70;;
35644;SDS011;21764;52.042;6.830;2024-01-07T08:42:38;19.67;;;7.72;;
35644;SDS011;21764;52.042;6.830;2024-01-07T08:47:39;14.82;;;8.93;;
35644;SDS011;21764;52.042;6.830;2024-01-07T08:52:40;21.27;;;9.80;;
35644;SDS011;21764;52.042;6.830;2024-01-07T08:57:41;30.40;;;16.45;;
35644;SDS011;21764;52.042;6.830;2024-01-07T09:02:43;21.95;;;9.18;;
35644;SDS011;21764;52.042;6.830;2024-01-07T09:07:44;22.95;;;11.65;;
35644;SDS011;21764;52.042;6.830;2024-01-07T09:12:45;22.85;;;12.55;;
35644;SDS011;21764;52.042;6.830;2024-01-07T09:17:47;16.52;;;8.60;;
35644;SDS011;21764;52.042;6.830;2024-01-07T09:22:48;16.15;;;8.68;;
35644;SDS011;21764;52.042;6.830;2024-01-07T09:27:49;18.30;;;10.85;;
35644;SDS011;21764;52.042;6.830;2024-01-07T09:32:50;13.05;;;8.50;;
35644;SDS011;21764;52.042;6.830;2024-01-07T09:37:51;13.90;;;8.20;;
35644;SDS011;21764;52.042;6.830;2024-01-07T09:42:52;11.15;;;6.68;;
35644;SDS011;21764;52.042;6.830;2024-01-07T09:47:53;7.03;;;4.28;;
35644;SDS011;21764;52.042;6.830;2024-01-07T09:52:56;8.95;;;5.47;;
35644;SDS011;21764;52.042;6.830;2024-01-07T09:58:02;7.82;;;5.30;;
35644;SDS011;21764;52.042;6.830;2024-01-07T10:03:03;10.15;;;5.28;;
35644;SDS011;21764;52.042;6.830;2024-01-07T10:08:05;6.82;;;4.57;;
35644;SDS011;21764;52.042;6.830;2024-01-07T10:13:06;8.80;;;3.53;;
35644;SDS011;21764;52.042;6.830;2024-01-07T10:18:08;10.77;;;4.97;;
35644;SDS011;21764;52.042;6.830;2024-01-07T10:23:09;7.38;;;4.72;;
35644;SDS011;21764;52.042;6.830;2024-01-07T10:28:11;4.68;;;3.55;;
35644;SDS011;21764;52.042;6.830;2024-01-07T10:33:12;9.15;;;3.65;;
35644;SDS011;21764;52.042;6.830;2024-01-07T10:38:13;4.45;;;2.78;;
35644;SDS011;21764;52.042;6.830;2024-01-07T10:43:15;7.30;;;3.58;;
35644;SDS011;21764;52.042;6.830;2024-01-07T10:48:17;5.18;;;2.95;;
35644;SDS011;21764;52.042;6.830;2024-01-07T10:53:21;7.15;;;3.45;;
35644;SDS011;21764;52.042;6.830;2024-01-07T10:58:25;14.35;;;8.02;;
35644;SDS011;21764;52.042;6.830;2024-01-07T11:03:38;5.68;;;2.65;;
35644;SDS011;21764;52.042;6.830;2024-01-07T11:08:47;5.20;;;3.17;;
35644;SDS011;21764;52.042;6.830;2024-01-07T11:13:53;4.45;;;3.15;;
35644;SDS011;21764;52.042;6.830;2024-01-07T11:18:54;35.40;;;13.93;;
35644;SDS011;21764;52.042;6.830;2024-01-07T11:23:55;5.85;;;3.15;;
35644;SDS011;21764;52.042;6.830;2024-01-07T11:28:57;7.20;;;3.20;;
35644;SDS011;21764;52.042;6.830;2024-01-07T11:33:58;5.45;;;3.15;;
35644;SDS011;21764;52.042;6.830;2024-01-07T11:38:59;12.38;;;5.70;;
35644;SDS011;21764;52.042;6.830;2024-01-07T11:44:00;9.30;;;5.25;;
35644;SDS011;21764;52.042;6.830;2024-01-07T11:49:01;10.43;;;3.75;;
35644;SDS011;21764;52.042;6.830;2024-01-07T11:54:02;6.00;;;3.08;;
35644;SDS011;21764;52.042;6.830;2024-01-07T11:59:03;9.52;;;5.25;;
35644;SDS011;21764;52.042;6.830;2024-01-07T12:04:06;5.97;;;3.08;;
35644;SDS011;21764;52.042;6.830;2024-01-07T12:09:11;4.80;;;2.50;;
35644;SDS011;21764;52.042;6.830;2024-01-07T12:14:13;32.45;;;6.53;;
35644;SDS011;21764;52.042;6.830;2024-01-07T12:19:14;8.38;;;4.20;;
35644;SDS011;21764;52.042;6.830;2024-01-07T12:24:16;8.45;;;3.45;;
35644;SDS011;21764;52.042;6.830;2024-01-07T12:29:17;6.75;;;4.15;;
35644;SDS011;21764;52.042;6.830;2024-01-07T12:34:18;11.60;;;4.60;;
35644;SDS011;21764;52.042;6.830;2024-01-07T12:39:23;5.80;;;2.90;;
35644;SDS011;21764;52.042;6.830;2024-01-07T12:44:28;8.10;;;2.80;;
35644;SDS011;21764;52.042;6.830;2024-01-07T12:49:29;9.40;;;2.83;;
35644;SDS011;21764;52.042;6.830;2024-01-07T12:54:30;3.30;;;2.80;;
35644;SDS011;21764;52.042;6.830;2024-01-07T12:59:32;5.18;;;2.22;;
35644;SDS011;21764;52.042;6.830;2024-01-07T13:04:33;4.50;;;2.80;;
35644;SDS011;21764;52.042;6.830;2024-01-07T13:09:34;4.70;;;2.42;;
35644;SDS011;21764;52.042;6.830;2024-01-07T13:14:35;3.47;;;1.88;;
35644;SDS011;21764;52.042;6.830;2024-01-07T13:19:36;5.05;;;2.10;;
35644;SDS011;21764;52.042;6.830;2024-01-07T13:24:37;5.57;;;3.03;;
35644;SDS011;21764;52.042;6.830;2024-01-07T13:29:38;5.78;;;2.40;;
35644;SDS011;21764;52.042;6.830;2024-01-07T13:34:41;16.23;;;5.35;;
35644;SDS011;21764;52.042;6.830;2024-01-07T13:39:42;6.00;;;2.35;;
35644;SDS011;21764;52.042;6.830;2024-01-07T13:44:43;5.30;;;3.35;;
35644;SDS011;21764;52.042;6.830;2024-01-07T13:49:46;8.23;;;4.43;;
35644;SDS011;21764;52.042;6.830;2024-01-07T13:54:47;5.53;;;3.20;;
35644;SDS011;21764;52.042;6.830;2024-01-07T13:59:48;2.53;;;1.80;;
35644;SDS011;21764;52.042;6.830;2024-01-07T14:04:50;8.45;;;3.42;;
35644;SDS011;21764;52.042;6.830;2024-01-07T14:09:51;5.40;;;3.05;;
35644;SDS011;21764;52.042;6.830;2024-01-07T14:14:52;5.18;;;2.72;;
35644;SDS011;21764;52.042;6.830;2024-01-07T14:19:53;6.15;;;3.53;;
35644;SDS011;21764;52.042;6.830;2024-01-07T14:24:55;5.25;;;3.40;;
35644;SDS011;21764;52.042;6.830;2024-01-07T14:29:56;7.65;;;3.78;;
35644;SDS011;21764;52.042;6.830;2024-01-07T14:34:57;6.50;;;3.50;;
35644;SDS011;21764;52.042;6.830;2024-01-07T14:39:58;8.40;;;4.70;;
35644;SDS011;21764;52.042;6.830;2024-01-07T14:44:59;13.23;;;6.28;;
35644;SDS011;21764;52.042;6.830;2024-01-07T14:50:00;13.88;;;5.88;;
35644;SDS011;21764;52.042;6.830;2024-01-07T14:55:02;4.68;;;3.45;;
35644;SDS011;21764;52.042;6.830;2024-01-07T15:00:04;6.78;;;3.50;;
35644;SDS011;21764;52.042;6.830;2024-01-07T15:05:06;9.20;;;4.72;;
35644;SDS011;21764;52.042;6.830;2024-01-07T15:10:07;7.68;;;3.63;;
35644;SDS011;21764;52.042;6.830;2024-01-07T15:15:08;9.02;;;4.65;;
35644;SDS011;21764;52.042;6.830;2024-01-07T15:20:11;11.07;;;4.70;;
35644;SDS011;21764;52.042;6.830;2024-01-07T15:25:12;6.97;;;3.65;;
35644;SDS011;21764;52.042;6.830;2024-01-07T15:30:13;14.23;;;4.72;;
35644;SDS011;21764;52.042;6.830;2024-01-07T15:35:14;10.10;;;4.13;;
35644;SDS011;21764;52.042;6.830;2024-01-07T15:40:15;10.32;;;6.40;;
35644;SDS011;21764;52.042;6.830;2024-01-07T15:45:16;6.05;;;4.13;;
35644;SDS011;21764;52.042;6.830;2024-01-07T15:50:17;7.88;;;4.32;;
35644;SDS011;21764;52.042;6.830;2024-01-07T15:55:18;13.27;;;3.70;;
35644;SDS011;21764;52.042;6.830;2024-01-07T16:00:19;6.70;;;3.55;;
35644;SDS011;21764;52.042;6.830;2024-01-07T16:05:20;8.90;;;4.10;;
35644;SDS011;21764;52.042;6.830;2024-01-07T16:10:22;11.45;;;4.68;;
35644;SDS011;21764;52.042;6.830;2024-01-07T16:15:23;10.68;;;4.53;;
35644;SDS011;21764;52.042;6.830;2024-01-07T16:20:24;10.13;;;5.15;;
35644;SDS011;21764;52.042;6.830;2024-01-07T16:25:26;7.35;;;4.20;;
35644;SDS011;21764;52.042;6.830;2024-01-07T16:30:27;8.65;;;4.65;;
35644;SDS011;21764;52.042;6.830;2024-01-07T16:35:29;9.23;;;4.28;;
35644;SDS011;21764;52.042;6.830;2024-01-07T16:40:30;11.35;;;5.90;;
35644;SDS011;21764;52.042;6.830;2024-01-07T16:45:31;23.58;;;6.18;;
35644;SDS011;21764;52.042;6.830;2024-01-07T16:50:32;14.07;;;7.38;;
35644;SDS011;21764;52.042;6.830;2024-01-07T16:55:33;14.85;;;7.50;;
35644;SDS011;21764;52.042;6.830;2024-01-07T17:00:37;19.63;;;8.93;;
35644;SDS011;21764;52.042;6.830;2024-01-07T17:05:38;17.37;;;8.77;;
35644;SDS011;21764;52.042;6.830;2024-01-07T17:10:44;16.88;;;9.15;;
35644;SDS011;21764;52.042;6.830;2024-01-07T17:15:45;18.02;;;10.48;;
35644;SDS011;21764;52.042;6.830;2024-01-07T17:20:46;20.13;;;9.73;;
35644;SDS011;21764;52.042;6.830;2024-01-07T17:25:48;19.30;;;11.52;;
35644;SDS011;21764;52.042;6.830;2024-01-07T17:30:50;20.73;;;11.25;;
35644;SDS011;21764;52.042;6.830;2024-01-07T17:35:51;20.08;;;11.63;;
35644;SDS011;21764;52.042;6.830;2024-01-07T17:40:52;23.05;;;11.05;;
35644;SDS011;21764;52.042;6.830;2024-01-07T17:45:53;22.63;;;13.65;;
35644;SDS011;21764;52.042;6.830;2024-01-07T17:50:54;26.75;;;14.07;;
35644;SDS011;21764;52.042;6.830;2024-01-07T17:56:02;24.67;;;13.52;;
35644;SDS011;21764;52.042;6.830;2024-01-07T18:01:05;24.33;;;12.38;;
35644;SDS011;21764;52.042;6.830;2024-01-07T18:06:09;21.10;;;13.02;;
35644;SDS011;21764;52.042;6.830;2024-01-07T18:11:10;25.88;;;13.00;;
35644;SDS011;21764;52.042;6.830;2024-01-07T18:16:11;23.85;;;11.65;;
35644;SDS011;21764;52.042;6.830;2024-01-07T18:21:14;17.05;;;11.90;;
35644;SDS011;21764;52.042;6.830;2024-01-07T18:26:16;21.05;;;11.82;;
35644;SDS011;21764;52.042;6.830;2024-01-07T18:31:17;24.55;;;10.90;;
35644;SDS011;21764;52.042;6.830;2024-01-07T18:36:19;26.60;;;14.35;;
35644;SDS011;21764;52.042;6.830;2024-01-07T18:41:20;21.27;;;11.95;;
35644;SDS011;21764;52.042;6.830;2024-01-07T18:46:21;24.60;;;11.20;;
35644;SDS011;21764;52.042;6.830;2024-01-07T18:51:22;25.23;;;13.93;;
35644;SDS011;21764;52.042;6.830;2024-01-07T18:56:23;21.90;;;12.48;;
35644;SDS011;21764;52.042;6.830;2024-01-07T19:01:24;21.05;;;11.70;;
35644;SDS011;21764;52.042;6.830;2024-01-07T19:06:26;23.20;;;12.00;;
35644;SDS011;21764;52.042;6.830;2024-01-07T19:11:27;23.25;;;12.63;;
35644;SDS011;21764;52.042;6.830;2024-01-07T19:16:28;23.75;;;10.93;;
35644;SDS011;21764;52.042;6.830;2024-01-07T19:21:29;24.23;;;13.32;;
35644;SDS011;21764;52.042;6.830;2024-01-07T19:26:30;25.65;;;11.93;;
35644;SDS011;21764;52.042;6.830;2024-01-07T19:31:32;23.48;;;11.32;;
35644;SDS011;21764;52.042;6.830;2024-01-07T19:36:33;21.27;;;11.60;;
35644;SDS011;21764;52.042;6.830;2024-01-07T19:41:34;23.83;;;12.57;;
35644;SDS011;21764;52.042;6.830;2024-01-07T19:46:36;24.83;;;12.43;;
35644;SDS011;21764;52.042;6.830;2024-01-07T19:51:38;20.42;;;11.27;;
35644;SDS011;21764;52.042;6.830;2024-01-07T19:56:39;26.20;;;13.35;;
35644;SDS011;21764;52.042;6.830;2024-01-07T20:01:43;24.98;;;13.98;;
35644;SDS011;21764;52.042;6.830;2024-01-07T20:06:44;26.90;;;14.60;;
35644;SDS011;21764;52.042;6.830;2024-01-07T20:11:46;23.60;;;14.00;;
35644;SDS011;21764;52.042;6.830;2024-01-07T20:16:47;26.90;;;16.42;;
35644;SDS011;21764;52.042;6.830;2024-01-07T20:21:48;26.90;;;15.30;;
35644;SDS011;21764;52.042;6.830;2024-01-07T20:26:49;26.30;;;14.70;;
35644;SDS011;21764;52.042;6.830;2024-01-07T20:31:50;20.50;;;13.75;;
35644;SDS011;21764;52.042;6.830;2024-01-07T20:36:51;20.38;;;12.65;;
35644;SDS011;21764;52.042;6.830;2024-01-07T20:41:53;20.70;;;12.77;;
35644;SDS011;21764;52.042;6.830;2024-01-07T20:46:55;27.08;;;13.90;;
35644;SDS011;21764;52.042;6.830;2024-01-07T20:51:56;19.77;;;11.88;;
35644;SDS011;21764;52.042;6.830;2024-01-07T20:56:58;15.00;;;9.65;;
35644;SDS011;21764;52.042;6.830;2024-01-07T21:01:59;16.35;;;10.95;;
35644;SDS011;21764;52.042;6.830;2024-01-07T21:07:00;17.55;;;9.48;;
35644;SDS011;21764;52.042;6.830;2024-01-07T21:12:01;13.35;;;8.48;;
35644;SDS011;21764;52.042;6.830;2024-01-07T21:17:02;15.02;;;8.90;;
35644;SDS011;21764;52.042;6.830;2024-01-07T21:22:03;17.73;;;8.40;;
35644;SDS011;21764;52.042;6.830;2024-01-07T21:27:04;23.23;;;10.45;;
35644;SDS011;21764;52.042;6.830;2024-01-07T21:32:05;19.90;;;11.30;;
35644;SDS011;21764;52.042;6.830;2024-01-07T21:37:06;14.70;;;8.73;;
35644;SDS011;21764;52.042;6.830;2024-01-07T21:42:07;11.88;;;7.82;;
35644;SDS011;21764;52.042;6.830;2024-01-07T21:47:09;11.18;;;7.53;;
35644;SDS011;21764;52.042;6.830;2024-01-07T21:52:10;17.75;;;8.88;;
35644;SDS011;21764;52.042;6.830;2024-01-07T21:57:11;18.15;;;9.88;;
35644;SDS011;21764;52.042;6.830;2024-01-07T22:02:12;12.88;;;8.50;;
35644;SDS011;21764;52.042;6.830;2024-01-07T22:07:13;14.65;;;8.95;;
35644;SDS011;21764;52.042;6.830;2024-01-07T22:12:14;16.83;;;9.00;;
35644;SDS011;21764;52.042;6.830;2024-01-07T22:17:15;14.10;;;9.35;;
35644;SDS011;21764;52.042;6.830;2024-01-07T22:22:16;15.32;;;10.05;;
35644;SDS011;21764;52.042;6.830;2024-01-07T22:27:17;16.23;;;9.55;;
35644;SDS011;21764;52.042;6.830;2024-01-07T22:32:18;16.90;;;9.18;;
35644;SDS011;21764;52.042;6.830;2024-01-07T22:37:19;9.18;;;6.78;;
35644;SDS011;21764;52.042;6.830;2024-01-07T22:42:21;14.45;;;9.30;;
35644;SDS011;21764;52.042;6.830;2024-01-07T22:47:22;11.55;;;8.13;;
35644;SDS011;21764;52.042;6.830;2024-01-07T22:52:23;12.20;;;7.82;;
35644;SDS011;21764;52.042;6.830;2024-01-07T22:57:24;11.27;;;6.38;;
35644;SDS011;21764;52.042;6.830;2024-01-07T23:02:25;10.43;;;6.75;;
35644;SDS011;21764;52.042;6.830;2024-01-07T23:07:26;12.52;;;6.93;;
35644;SDS011;21764;52.042;6.830;2024-01-07T23:12:27;12.40;;;6.80;;
35644;SDS011;21764;52.042;6.830;2024-01-07T23:17:28;11.13;;;6.18;;
35644;SDS011;21764;52.042;6.830;2024-01-07T23:22:29;9.98;;;6.28;;
35644;SDS011;21764;52.042;6.830;2024-01-07T23:27:30;8.50;;;5.88;;
35644;SDS011;21764;52.042;6.830;2024-01-07T23:32:31;10.20;;;6.38;;
35644;SDS011;21764;52.042;6.830;2024-01-07T23:37:33;15.98;;;7.57;;
35644;SDS011;21764;52.042;6.830;2024-01-07T23:42:34;16.10;;;7.85;;
35644;SDS011;21764;52.042;6.830;2024-01-07T23:47:35;14.27;;;8.63;;
35644;SDS011;21764;52.042;6.830;2024-01-07T23:52:37;11.40;;;6.63;;
35644;SDS011;21764;52.042;6.830;2024-01-07T23:57:38;11.18;;;7.53;;
